UAE95 OMDB-LIRF
Flight info
| Callsign | UAE95 |
|---|---|
| Flight time | N/A |
| Altitude | 36000 |
| Route | RIDAP M557 TUMAK L602 TASMI/N0456F220 L602 ALPET/N0489F360 L718 KABAN UL718 ULSAB UG8 GOBIT/N0480F380 UG8 YAA UG12 GOLDO UN79 PINDO DCT PAPIZ DCT EKTOL DCT AMSOR DCT IPKAM DCT TEA/N0429F180 Z803 LAT |
| Aircraft | B77W/H-SDE1E2E3FGHIJ2J3J4J5M1RWXY/LB1D1 |
Departure
| Time | 2026-05-08 08:41 |
|---|---|
| Airport | Dubai International Airport (OMDB) |
Arrival
| Time | N/A |
|---|---|
| Airport | Rome–Fiumicino Leonardo da Vinci International Airport (LIRF) |
| Time | Latitude | Longitude | Altitude | Speed | Heading |
|---|---|---|---|---|---|
| 2026-05-08 08:13 | 25.24816 | 55.36450 | 25 ft | 0 kts | 209° |
| 2026-05-08 08:30 | 25.24843 | 55.36466 | 26 ft | 4 kts | 211° |
| 2026-05-08 08:31 | 25.24865 | 55.36482 | 25 ft | 4 kts | 206° |
| 2026-05-08 08:31 | 25.24885 | 55.36484 | 24 ft | 4 kts | 134° |
| 2026-05-08 08:31 | 25.24901 | 55.36460 | 25 ft | 3 kts | 122° |
| 2026-05-08 08:31 | 25.24903 | 55.36456 | 25 ft | 0 kts | 124° |
| 2026-05-08 08:35 | 25.24891 | 55.36476 | 24 ft | 8 kts | 123° |
| 2026-05-08 08:35 | 25.24838 | 55.36572 | 27 ft | 21 kts | 120° |
| 2026-05-08 08:35 | 25.24777 | 55.36753 | 27 ft | 27 kts | 103° |
| 2026-05-08 08:35 | 25.24697 | 55.36945 | 27 ft | 27 kts | 122° |
| 2026-05-08 08:36 | 25.24598 | 55.37122 | 27 ft | 27 kts | 121° |
| 2026-05-08 08:36 | 25.24500 | 55.37299 | 27 ft | 27 kts | 121° |
| 2026-05-08 08:36 | 25.24401 | 55.37478 | 27 ft | 27 kts | 121° |
| 2026-05-08 08:36 | 25.24302 | 55.37657 | 27 ft | 27 kts | 121° |
| 2026-05-08 08:37 | 25.24275 | 55.37765 | 27 ft | 13 kts | 57° |
| 2026-05-08 08:37 | 25.24342 | 55.37824 | 27 ft | 11 kts | 34° |
| 2026-05-08 08:37 | 25.24357 | 55.37835 | 27 ft | 0 kts | 33° |
| 2026-05-08 08:38 | 25.24369 | 55.37844 | 27 ft | 7 kts | 34° |
| 2026-05-08 08:38 | 25.24455 | 55.37909 | 25 ft | 23 kts | 34° |
| 2026-05-08 08:38 | 25.24602 | 55.38019 | 27 ft | 16 kts | 32° |
| 2026-05-08 08:38 | 25.24633 | 55.38041 | 27 ft | 0 kts | 32° |
| 2026-05-08 08:39 | 25.24650 | 55.38052 | 27 ft | 7 kts | 32° |
| 2026-05-08 08:39 | 25.24712 | 55.38095 | 27 ft | 12 kts | 30° |
| 2026-05-08 08:39 | 25.24779 | 55.38074 | 27 ft | 3 kts | 297° |
| 2026-05-08 08:39 | 25.24779 | 55.38073 | 27 ft | 0 kts | 297° |
| 2026-05-08 08:40 | 25.24824 | 55.37987 | 27 ft | 46 kts | 301° |
| 2026-05-08 08:40 | 25.25142 | 55.37415 | 27 ft | 124 kts | 301° |
| 2026-05-08 08:40 | 25.25711 | 55.36392 | 38 ft | 183 kts | 302° |
| 2026-05-08 08:40 | 25.26385 | 55.35175 | 644 ft | 189 kts | 301° |
| 2026-05-08 08:41 | 25.27067 | 55.33910 | 1308 ft | 189 kts | 297° |
| 2026-05-08 08:41 | 25.27757 | 55.32675 | 1991 ft | 195 kts | 298° |
| 2026-05-08 08:41 | 25.28517 | 55.31312 | 2197 ft | 223 kts | 300° |
| 2026-05-08 08:41 | 25.29374 | 55.29786 | 2413 ft | 248 kts | 300° |
| 2026-05-08 08:42 | 25.30355 | 55.28154 | 3081 ft | 254 kts | 302° |
| 2026-05-08 08:42 | 25.31367 | 55.26569 | 3642 ft | 259 kts | 304° |
| 2026-05-08 08:42 | 25.32437 | 55.24910 | 4160 ft | 262 kts | 304° |
| 2026-05-08 08:42 | 25.33488 | 55.23276 | 4840 ft | 266 kts | 304° |
| 2026-05-08 08:43 | 25.34564 | 55.21591 | 5530 ft | 270 kts | 304° |
| 2026-05-08 08:43 | 25.35573 | 55.19829 | 6086 ft | 274 kts | 291° |
| 2026-05-08 08:43 | 25.35837 | 55.17743 | 6646 ft | 276 kts | 268° |
| 2026-05-08 08:43 | 25.35743 | 55.15605 | 7266 ft | 281 kts | 268° |
| 2026-05-08 08:44 | 25.35663 | 55.13431 | 7929 ft | 285 kts | 268° |
| 2026-05-08 08:44 | 25.35583 | 55.11226 | 8623 ft | 287 kts | 267° |
| 2026-05-08 08:44 | 25.35501 | 55.09002 | 9272 ft | 293 kts | 267° |
| 2026-05-08 08:44 | 25.35417 | 55.06733 | 9917 ft | 296 kts | 266° |
| 2026-05-08 08:45 | 25.35333 | 55.04452 | 10434 ft | 307 kts | 266° |
| 2026-05-08 08:45 | 25.35240 | 55.01995 | 10602 ft | 331 kts | 265° |
| 2026-05-08 08:45 | 25.35143 | 54.99365 | 10784 ft | 354 kts | 266° |
| 2026-05-08 08:45 | 25.35040 | 54.96552 | 10980 ft | 376 kts | 266° |
| 2026-05-08 08:46 | 25.34932 | 54.93612 | 11489 ft | 387 kts | 266° |
| 2026-05-08 08:46 | 25.34900 | 54.90618 | 12029 ft | 392 kts | 272° |
| 2026-05-08 08:46 | 25.35543 | 54.87652 | 12512 ft | 403 kts | 287° |
| 2026-05-08 08:46 | 25.36499 | 54.84697 | 13163 ft | 411 kts | 287° |
| 2026-05-08 08:47 | 25.37431 | 54.81687 | 13962 ft | 414 kts | 285° |
| 2026-05-08 08:47 | 25.38326 | 54.78661 | 14808 ft | 414 kts | 285° |
| 2026-05-08 08:47 | 25.39186 | 54.75664 | 15571 ft | 416 kts | 285° |
| 2026-05-08 08:47 | 25.40060 | 54.72593 | 16294 ft | 420 kts | 285° |
| 2026-05-08 08:48 | 25.40948 | 54.69485 | 16998 ft | 425 kts | 286° |
| 2026-05-08 08:48 | 25.41852 | 54.66362 | 17733 ft | 429 kts | 286° |
| 2026-05-08 08:48 | 25.42766 | 54.63204 | 18426 ft | 432 kts | 286° |
| 2026-05-08 08:48 | 25.43689 | 54.60021 | 19067 ft | 435 kts | 286° |
| 2026-05-08 08:49 | 25.44624 | 54.56831 | 19711 ft | 437 kts | 286° |
| 2026-05-08 08:49 | 25.45560 | 54.53658 | 20327 ft | 440 kts | 286° |
| 2026-05-08 08:49 | 25.46514 | 54.50419 | 20946 ft | 443 kts | 286° |
| 2026-05-08 08:49 | 25.47473 | 54.47160 | 21551 ft | 447 kts | 285° |
| 2026-05-08 08:50 | 25.48436 | 54.43880 | 22121 ft | 450 kts | 285° |
| 2026-05-08 08:50 | 25.49405 | 54.40573 | 22724 ft | 453 kts | 285° |
| 2026-05-08 08:50 | 25.50379 | 54.37246 | 23310 ft | 455 kts | 285° |
| 2026-05-08 08:50 | 25.51356 | 54.33904 | 23815 ft | 457 kts | 285° |
| 2026-05-08 08:51 | 25.52337 | 54.30545 | 24307 ft | 459 kts | 285° |
| 2026-05-08 08:51 | 25.53321 | 54.27174 | 24778 ft | 461 kts | 285° |
| 2026-05-08 08:51 | 25.54309 | 54.23787 | 25252 ft | 463 kts | 285° |
| 2026-05-08 08:51 | 25.55299 | 54.20426 | 25708 ft | 465 kts | 285° |
| 2026-05-08 08:52 | 25.56311 | 54.17012 | 26153 ft | 468 kts | 285° |
| 2026-05-08 08:52 | 25.57329 | 54.13580 | 26584 ft | 470 kts | 285° |
| 2026-05-08 08:52 | 25.58351 | 54.10123 | 27024 ft | 472 kts | 285° |
| 2026-05-08 08:52 | 25.59374 | 54.06654 | 27440 ft | 475 kts | 285° |
| 2026-05-08 08:53 | 25.60386 | 54.03155 | 27864 ft | 477 kts | 285° |
| 2026-05-08 08:53 | 25.61379 | 53.99651 | 28282 ft | 478 kts | 284° |
| 2026-05-08 08:53 | 25.62374 | 53.96121 | 28653 ft | 481 kts | 284° |
| 2026-05-08 08:53 | 25.63374 | 53.92570 | 29019 ft | 483 kts | 284° |
| 2026-05-08 08:54 | 25.64378 | 53.89011 | 29375 ft | 485 kts | 284° |
| 2026-05-08 08:54 | 25.65388 | 53.85438 | 29713 ft | 487 kts | 284° |
| 2026-05-08 08:54 | 25.66402 | 53.81851 | 30059 ft | 487 kts | 284° |
| 2026-05-08 08:54 | 25.67402 | 53.78315 | 30442 ft | 486 kts | 284° |
| 2026-05-08 08:55 | 25.68411 | 53.74743 | 30860 ft | 484 kts | 284° |